createdAt,value
2022-09-25T00:01:49.828Z,92.36
2022-09-25T00:04:20.215Z,93.15
2022-09-25T00:06:49.630Z,93.58
2022-09-25T00:09:21.693Z,93.73
2022-09-25T00:11:51.091Z,93.86
2022-09-25T00:14:20.519Z,93.43
2022-09-25T00:16:52.547Z,92.96
2022-09-25T00:19:35.571Z,92.36
2022-09-25T00:22:04.954Z,92.52
2022-09-25T00:24:34.842Z,92.66
2022-09-25T00:27:06.078Z,93.26
2022-09-25T00:29:35.604Z,93.05
2022-09-25T00:32:07.925Z,93.39
2022-09-25T00:34:37.385Z,93.50
2022-09-25T00:37:07.270Z,93.91
2022-09-25T00:39:36.820Z,94.21
2022-09-25T00:42:06.436Z,94.60
2022-09-25T00:44:56.606Z,94.45
2022-09-25T00:47:31.637Z,94.80
2022-09-25T00:50:01.176Z,94.70
2022-09-25T00:52:30.583Z,94.52
2022-09-25T00:55:02.180Z,94.49
2022-09-25T00:57:32.449Z,94.90
2022-09-25T01:00:03.511Z,94.90
2022-09-25T01:02:39.573Z,95.15
2022-09-25T01:05:11.364Z,95.43
2022-09-25T01:07:42.020Z,94.90
2022-09-25T01:10:11.998Z,94.95
2022-09-25T01:12:43.521Z,94.35
2022-09-25T01:15:13.719Z,94.20
2022-09-25T01:17:47.917Z,94.57
2022-09-25T01:20:19.484Z,94.86
2022-09-25T01:22:54.475Z,94.97
2022-09-25T01:25:30.369Z,95.54
2022-09-25T01:28:09.489Z,95.98
2022-09-25T01:30:44.141Z,96.36
2022-09-25T01:33:16.047Z,97.02
2022-09-25T01:35:48.601Z,96.93
2022-09-25T01:38:24.649Z,96.61
2022-09-25T01:40:56.878Z,96.98
2022-09-25T01:43:27.960Z,96.50
2022-09-25T01:46:03.371Z,96.17
2022-09-25T01:48:34.081Z,96.47
2022-09-25T01:51:04.733Z,97.10
2022-09-25T01:53:36.883Z,97.34
2022-09-25T01:56:08.749Z,96.85
2022-09-25T01:58:39.511Z,96.32
2022-09-25T02:01:13.400Z,96.30
2022-09-25T02:03:44.827Z,96.01
2022-09-25T02:06:16.229Z,95.61
2022-09-25T02:08:47.707Z,95.05
2022-09-25T02:11:17.110Z,94.53
2022-09-25T02:13:49.596Z,94.59
2022-09-25T02:16:23.660Z,94.30
2022-09-25T02:19:05.613Z,94.18
2022-09-25T02:21:40.498Z,94.77
2022-09-25T02:24:15.494Z,94.67
2022-09-25T02:26:44.898Z,94.53
2022-09-25T02:29:15.462Z,94.90
2022-09-25T02:31:49.223Z,94.58
2022-09-25T02:34:18.772Z,94.51
2022-09-25T02:36:48.661Z,94.56
2022-09-25T02:39:19.589Z,94.06
2022-09-25T02:42:08.480Z,93.52
2022-09-25T02:44:43.574Z,93.22
2022-09-25T02:47:22.527Z,93.34
2022-09-25T02:49:53.870Z,93.08
2022-09-25T02:52:28.663Z,93.24
2022-09-25T02:54:59.575Z,93.00
2022-09-25T02:57:32.022Z,93.03
2022-09-25T03:00:03.035Z,92.18
2022-09-25T03:02:35.114Z,92.84
2022-09-25T03:05:04.693Z,93.11
2022-09-25T03:07:54.221Z,92.93
2022-09-25T03:10:21.142Z,92.23
2022-09-25T03:12:50.593Z,92.12
2022-09-25T03:15:20.490Z,92.43
2022-09-25T03:17:53.312Z,91.97
2022-09-25T03:20:22.725Z,91.91
2022-09-25T03:22:52.107Z,91.78
2022-09-25T03:25:22.513Z,92.41
2022-09-25T03:27:51.907Z,92.45
2022-09-25T03:30:21.297Z,91.70
2022-09-25T03:32:53.275Z,91.83
2022-09-25T03:35:23.085Z,91.37
2022-09-25T03:37:52.483Z,91.19
2022-09-25T03:40:21.922Z,90.71
2022-09-25T03:42:51.404Z,90.38
2022-09-25T03:45:20.781Z,90.38
2022-09-25T03:47:52.749Z,90.21
2022-09-25T03:50:22.129Z,90.11
2022-09-25T03:52:51.528Z,90.24
2022-09-25T03:55:22.366Z,90.25
2022-09-25T03:57:51.758Z,90.73
2022-09-25T04:00:21.204Z,90.60
2022-09-25T04:02:53.436Z,90.14
2022-09-25T04:05:22.900Z,90.57
2022-09-25T04:07:52.303Z,90.29
2022-09-25T04:10:21.689Z,89.56
2022-09-25T04:12:55.579Z,89.24
2022-09-25T04:15:25.706Z,88.79
2022-09-25T04:18:01.177Z,88.79
2022-09-25T04:20:34.565Z,88.91
2022-09-25T04:23:04.043Z,88.54
2022-09-25T04:25:33.453Z,88.98
2022-09-25T04:28:02.979Z,89.06
2022-09-25T04:30:32.422Z,90.02
2022-09-25T04:33:16.893Z,90.22
2022-09-25T04:35:46.322Z,90.04
2022-09-25T04:38:15.692Z,89.28
2022-09-25T04:40:46.053Z,88.93
2022-09-25T04:43:15.613Z,88.92
2022-09-25T04:45:47.275Z,89.01
2022-09-25T04:48:19.346Z,88.91
2022-09-25T04:50:51.623Z,89.07
2022-09-25T04:53:23.013Z,88.54
2022-09-25T04:55:54.358Z,88.64
2022-09-25T04:58:23.905Z,88.29
2022-09-25T05:00:53.375Z,88.26
2022-09-25T05:03:25.485Z,88.24
2022-09-25T05:05:54.913Z,88.00
2022-09-25T05:08:24.314Z,88.29
2022-09-25T05:10:53.711Z,88.43
2022-09-25T05:13:23.394Z,87.90
2022-09-25T05:15:52.941Z,87.80
2022-09-25T05:18:25.322Z,87.58
2022-09-25T05:20:55.066Z,87.04
2022-09-25T05:23:24.446Z,86.99
2022-09-25T05:25:55.184Z,87.23
2022-09-25T05:28:24.871Z,87.87
2022-09-25T05:30:54.270Z,87.94
2022-09-25T05:33:26.236Z,87.88
2022-09-25T05:35:55.643Z,88.41
2022-09-25T05:38:25.013Z,88.73
2022-09-25T05:40:54.438Z,88.83
2022-09-25T05:43:24.897Z,88.97
2022-09-25T05:45:57.629Z,89.27
2022-09-25T05:48:29.751Z,89.31
2022-09-25T05:50:59.626Z,89.45
2022-09-25T05:53:30.328Z,89.36
2022-09-25T05:56:01.024Z,89.96
2022-09-25T05:58:31.045Z,89.74
2022-09-25T06:01:03.235Z,89.58
2022-09-25T06:03:35.477Z,89.73
2022-09-25T06:06:05.261Z,89.40
2022-09-25T06:08:35.572Z,89.16
2022-09-25T06:11:05.117Z,89.11
2022-09-25T06:13:35.242Z,89.01
2022-09-25T06:16:05.430Z,88.41
2022-09-25T06:18:37.566Z,88.00
2022-09-25T06:21:08.022Z,88.28
2022-09-25T06:23:37.439Z,88.58
2022-09-25T06:26:09.373Z,88.11
2022-09-25T06:28:38.768Z,87.88
2022-09-25T06:31:08.247Z,87.67
2022-09-25T06:33:40.460Z,88.45
2022-09-25T06:36:09.971Z,88.58
2022-09-25T06:38:39.758Z,90.01
2022-09-25T06:41:09.324Z,90.91
2022-09-25T06:43:38.765Z,90.79
2022-09-25T06:46:08.336Z,90.55
2022-09-25T06:48:40.543Z,90.54
2022-09-25T06:51:11.085Z,89.99
2022-09-25T06:53:40.493Z,89.97
2022-09-25T06:56:13.480Z,89.59
2022-09-25T06:58:42.896Z,89.12
2022-09-25T07:01:13.882Z,88.67
2022-09-25T07:03:45.886Z,88.74
2022-09-25T07:06:16.452Z,88.26
2022-09-25T07:08:46.367Z,88.58
2022-09-25T07:11:16.960Z,88.93
2022-09-25T07:13:46.359Z,89.51
2022-09-25T07:16:16.670Z,89.67
2022-09-25T07:18:48.821Z,89.66
2022-09-25T07:21:19.157Z,89.52
2022-09-25T07:23:49.632Z,89.81
2022-09-25T07:26:22.588Z,89.38
2022-09-25T07:28:55.490Z,88.55
2022-09-25T07:31:26.084Z,87.94
2022-09-25T07:33:58.720Z,88.19
2022-09-25T07:36:28.688Z,87.35
2022-09-25T07:38:58.081Z,87.48
2022-09-25T07:41:27.459Z,86.90
2022-09-25T07:44:27.803Z,85.38
2022-09-25T07:46:46.868Z,84.18
2022-09-25T07:49:18.942Z,82.55
2022-09-25T07:51:48.387Z,81.53
2022-09-25T07:54:17.815Z,81.43
2022-09-25T07:56:47.229Z,80.65
2022-09-25T07:59:16.643Z,80.75
2022-09-25T08:01:51.219Z,80.40
2022-09-25T08:04:25.883Z,80.68
2022-09-25T08:06:55.284Z,80.96
2022-09-25T08:09:24.673Z,80.84
2022-09-25T08:11:54.185Z,80.93
2022-09-25T08:14:27.003Z,81.11
2022-09-25T08:16:57.011Z,81.43
2022-09-25T08:19:28.979Z,81.63
2022-09-25T08:21:58.394Z,82.75
2022-09-25T08:24:27.809Z,83.32
2022-09-25T08:26:57.210Z,84.35
2022-09-25T08:29:27.066Z,84.78
2022-09-25T08:31:56.473Z,84.66
2022-09-25T08:34:40.435Z,84.72
2022-09-25T08:37:12.862Z,84.68
2022-09-25T08:39:42.274Z,84.83
2022-09-25T08:42:13.460Z,84.52
2022-09-25T08:45:02.509Z,84.08
2022-09-25T08:47:55.157Z,83.18
2022-09-25T08:50:25.266Z,81.73
2022-09-25T08:53:00.068Z,81.52
2022-09-25T08:55:51.347Z,81.73
2022-09-25T08:58:22.527Z,82.34
2022-09-25T09:00:51.993Z,82.49
2022-09-25T09:03:21.399Z,82.81
2022-09-25T09:05:51.766Z,82.54
2022-09-25T09:08:25.784Z,83.38
2022-09-25T09:10:56.705Z,84.07
2022-09-25T09:13:28.647Z,83.21
2022-09-25T09:16:01.922Z,81.12
2022-09-25T09:18:33.044Z,78.86
2022-09-25T09:21:04.294Z,77.34
2022-09-25T09:23:37.343Z,77.39
2022-09-25T09:26:07.653Z,78.09
2022-09-25T09:29:00.023Z,78.26
2022-09-25T09:31:32.276Z,78.39
2022-09-25T09:34:07.625Z,77.85
2022-09-25T09:36:39.745Z,77.47
2022-09-25T09:39:16.286Z,77.37
2022-09-25T09:41:54.564Z,77.39
2022-09-25T09:44:31.387Z,77.13
2022-09-25T09:47:10.919Z,76.55
2022-09-25T09:49:42.607Z,76.56
2022-09-25T09:52:14.596Z,75.36
2022-09-25T09:54:47.551Z,74.70
2022-09-25T09:57:20.216Z,75.70
2022-09-25T09:59:52.142Z,75.20
2022-09-25T10:02:30.009Z,74.78
2022-09-25T10:04:59.562Z,74.14
2022-09-25T10:07:29.093Z,73.83
2022-09-25T10:10:01.090Z,74.45
2022-09-25T10:12:32.901Z,73.79
2022-09-25T10:15:04.506Z,74.34
2022-09-25T10:17:36.128Z,74.38
2022-09-25T10:20:07.910Z,75.62
2022-09-25T10:22:39.809Z,75.45
2022-09-25T10:25:12.205Z,75.47
2022-09-25T10:27:46.268Z,75.93
2022-09-25T10:30:23.044Z,75.13
2022-09-25T10:33:00.965Z,75.99
2022-09-25T10:35:31.501Z,76.51
2022-09-25T10:38:02.986Z,75.72
2022-09-25T10:40:36.987Z,75.96
2022-09-25T10:43:08.819Z,76.88
2022-09-25T10:45:40.843Z,77.73
2022-09-25T10:48:39.722Z,77.19
2022-09-25T10:51:10.697Z,78.18
2022-09-25T10:53:40.243Z,78.30
2022-09-25T10:56:13.629Z,78.20
2022-09-25T10:58:44.297Z,76.73
2022-09-25T11:01:14.919Z,77.33
2022-09-25T11:03:49.119Z,79.08
2022-09-25T11:06:25.110Z,79.99
2022-09-25T11:09:07.862Z,80.10
2022-09-25T11:11:39.958Z,80.07
2022-09-25T11:14:11.303Z,80.35
2022-09-25T11:16:49.184Z,79.52
2022-09-25T11:19:22.394Z,79.72
2022-09-25T11:21:59.983Z,79.14
2022-09-25T11:24:33.151Z,79.42
2022-09-25T11:27:07.566Z,79.44
2022-09-25T11:29:44.395Z,80.13
2022-09-25T11:32:17.959Z,79.89
2022-09-25T11:34:58.035Z,80.75
2022-09-25T11:37:29.640Z,80.72
2022-09-25T11:40:23.838Z,81.11
2022-09-25T11:43:00.942Z,79.64
2022-09-25T11:45:36.817Z,80.25
2022-09-25T11:48:08.038Z,79.80
2022-09-25T11:50:47.928Z,79.89
2022-09-25T11:53:22.740Z,79.95
2022-09-25T11:56:02.464Z,80.29
2022-09-25T11:58:41.650Z,80.45
2022-09-25T12:01:21.160Z,78.59
2022-09-25T12:03:59.302Z,78.29
2022-09-25T12:06:49.105Z,78.81
2022-09-25T12:09:26.000Z,78.76
2022-09-25T12:11:59.792Z,77.84
2022-09-25T12:14:35.171Z,78.18
2022-09-25T12:17:07.811Z,78.67
2022-09-25T12:19:40.968Z,77.39
2022-09-25T12:22:13.957Z,77.69
2022-09-25T12:24:53.647Z,78.52
2022-09-25T12:27:26.202Z,78.28
2022-09-25T12:30:11.846Z,77.14
2022-09-25T12:33:05.212Z,77.03
2022-09-25T12:35:42.478Z,76.80
2022-09-25T12:38:19.520Z,77.14
2022-09-25T12:40:51.218Z,77.38
2022-09-25T12:43:24.167Z,77.52
2022-09-25T12:45:59.610Z,78.06
2022-09-25T12:48:33.393Z,76.77
2022-09-25T12:51:05.745Z,76.65
2022-09-25T12:53:38.506Z,76.89
2022-09-25T12:56:13.260Z,75.42
2022-09-25T12:58:50.650Z,75.61
2022-09-25T13:01:25.876Z,76.18
2022-09-25T13:04:01.141Z,75.24
2022-09-25T13:06:34.257Z,75.75
2022-09-25T13:09:05.207Z,75.71
2022-09-25T13:11:38.298Z,76.85
2022-09-25T13:14:09.431Z,76.71
2022-09-25T13:16:41.479Z,76.21
2022-09-25T13:19:14.568Z,75.86
2022-09-25T13:21:44.634Z,75.23
2022-09-25T13:24:16.206Z,75.32
2022-09-25T13:26:47.364Z,74.94
2022-09-25T13:29:23.856Z,74.74
2022-09-25T13:31:55.820Z,73.25
2022-09-25T13:34:26.562Z,73.26
2022-09-25T13:36:56.730Z,73.55
2022-09-25T13:39:42.002Z,73.38
2022-09-25T13:42:18.041Z,72.17
2022-09-25T13:45:07.742Z,73.44
2022-09-25T13:48:06.080Z,73.25
2022-09-25T13:50:41.110Z,72.29
2022-09-25T13:53:26.297Z,72.14
2022-09-25T13:56:29.405Z,72.45
2022-09-25T13:59:23.311Z,71.36
2022-09-25T14:02:00.586Z,70.83
2022-09-25T14:04:39.989Z,69.63
2022-09-25T14:07:16.546Z,70.31
2022-09-25T14:09:47.993Z,70.01
2022-09-25T14:12:25.440Z,71.46
2022-09-25T14:14:58.062Z,71.48
2022-09-25T14:17:29.874Z,71.54
2022-09-25T14:20:02.794Z,71.32
2022-09-25T14:22:44.451Z,68.97
2022-09-25T14:25:27.846Z,70.01
2022-09-25T14:27:57.339Z,70.48
2022-09-25T14:30:29.280Z,68.44
2022-09-25T14:33:17.981Z,69.63
2022-09-25T14:35:57.504Z,68.56
2022-09-25T14:38:47.601Z,68.71
2022-09-25T14:41:28.266Z,69.23
2022-09-25T14:44:06.432Z,67.89
2022-09-25T14:46:35.839Z,68.90
2022-09-25T14:49:07.476Z,68.96
2022-09-25T14:51:44.548Z,70.62
2022-09-25T14:54:17.344Z,69.67
2022-09-25T14:56:48.543Z,70.35
2022-09-25T14:59:19.721Z,69.89
2022-09-25T15:01:50.565Z,69.51
2022-09-25T15:04:28.216Z,68.17
2022-09-25T15:07:06.069Z,69.57
2022-09-25T15:09:42.208Z,68.75
2022-09-25T15:12:19.831Z,69.35
2022-09-25T15:15:07.791Z,70.20
2022-09-25T15:17:37.723Z,69.27
2022-09-25T15:20:09.506Z,69.84
2022-09-25T15:22:41.529Z,69.68
2022-09-25T15:25:11.587Z,69.58
2022-09-25T15:27:42.924Z,69.25
2022-09-25T15:30:17.638Z,68.60
2022-09-25T15:32:47.143Z,69.45
2022-09-25T15:35:20.530Z,69.47
2022-09-25T15:37:52.514Z,69.96
2022-09-25T15:40:25.821Z,69.68
2022-09-25T15:43:02.818Z,69.96
2022-09-25T15:45:40.624Z,70.19
2022-09-25T15:48:20.827Z,70.77
2022-09-25T15:50:50.218Z,70.74
2022-09-25T15:53:24.629Z,69.77
2022-09-25T15:55:54.105Z,71.21
2022-09-25T15:58:23.493Z,71.13
2022-09-25T16:01:13.956Z,71.42
2022-09-25T16:04:00.125Z,72.82
2022-09-25T16:06:30.772Z,71.94
2022-09-25T16:09:20.181Z,71.80
2022-09-25T16:11:50.201Z,71.77
2022-09-25T16:14:22.921Z,71.24
2022-09-25T16:16:52.889Z,71.20
2022-09-25T16:19:27.825Z,71.58
2022-09-25T16:21:57.278Z,71.72
2022-09-25T16:24:29.866Z,72.07
2022-09-25T16:27:00.834Z,70.75
2022-09-25T16:29:30.977Z,70.91
2022-09-25T16:32:03.531Z,71.31
2022-09-25T16:34:33.699Z,70.51
2022-09-25T16:37:05.188Z,69.79
2022-09-25T16:39:38.732Z,69.86
2022-09-25T16:42:27.719Z,70.49
2022-09-25T16:45:04.893Z,70.21
2022-09-25T16:47:35.128Z,69.70
2022-09-25T16:50:04.739Z,70.32
2022-09-25T16:52:34.791Z,71.56
2022-09-25T16:55:09.120Z,71.24
2022-09-25T16:57:41.351Z,71.25
2022-09-25T17:00:19.175Z,71.38
2022-09-25T17:02:49.404Z,71.80
2022-09-25T17:05:20.577Z,71.78
2022-09-25T17:07:50.241Z,72.10
2022-09-25T17:10:23.420Z,71.70
2022-09-25T17:12:54.058Z,71.74
2022-09-25T17:15:25.409Z,71.52
2022-09-25T17:17:55.963Z,71.57
2022-09-25T17:20:25.886Z,71.17
2022-09-25T17:22:55.867Z,71.39
2022-09-25T17:25:38.254Z,71.74
2022-09-25T17:28:08.130Z,72.70
2022-09-25T17:30:37.633Z,72.61
2022-09-25T17:33:07.850Z,72.38
2022-09-25T17:35:42.902Z,72.60
2022-09-25T17:38:12.752Z,72.58
2022-09-25T17:40:45.821Z,73.12
2022-09-25T17:43:16.068Z,73.64
2022-09-25T17:45:49.096Z,73.51
2022-09-25T17:48:23.505Z,72.96
2022-09-25T17:50:52.934Z,73.65
2022-09-25T17:53:23.594Z,73.79
2022-09-25T17:55:55.586Z,73.94
2022-09-25T17:58:25.788Z,74.03
2022-09-25T18:00:55.777Z,74.38
2022-09-25T18:03:25.172Z,74.68
2022-09-25T18:05:55.237Z,75.03
2022-09-25T18:08:24.620Z,74.66
2022-09-25T18:10:58.598Z,74.81
2022-09-25T18:13:28.017Z,74.27
2022-09-25T18:15:58.543Z,74.17
2022-09-25T18:18:48.108Z,74.60
2022-09-25T18:21:41.553Z,74.08
2022-09-25T18:24:10.949Z,74.51
2022-09-25T18:26:42.951Z,74.31
2022-09-25T18:29:12.656Z,74.27
2022-09-25T18:31:42.272Z,73.91
2022-09-25T18:34:11.677Z,74.42
2022-09-25T18:36:41.056Z,74.03
2022-09-25T18:39:13.756Z,73.54
2022-09-25T18:41:48.453Z,73.49
2022-09-25T18:44:19.577Z,73.41
2022-09-25T18:46:48.838Z,74.08
2022-09-25T18:49:18.812Z,74.19
2022-09-25T18:51:48.294Z,74.09
2022-09-25T18:54:17.869Z,74.01
2022-09-25T18:56:49.860Z,74.32
2022-09-25T18:59:19.278Z,74.16
2022-09-25T19:01:48.841Z,74.19
2022-09-25T19:04:20.813Z,74.73
2022-09-25T19:06:50.259Z,74.77
2022-09-25T19:09:19.967Z,74.73
2022-09-25T19:11:52.074Z,74.98
2022-09-25T19:14:21.523Z,75.07
2022-09-25T19:16:51.824Z,74.92
2022-09-25T19:19:21.420Z,74.93
2022-09-25T19:21:50.811Z,74.55
2022-09-25T19:24:20.928Z,73.92
2022-09-25T19:26:52.928Z,73.93
2022-09-25T19:29:22.550Z,73.49
2022-09-25T19:31:51.943Z,73.77
2022-09-25T19:34:21.360Z,73.90
2022-09-25T19:36:51.056Z,73.97
2022-09-25T19:39:20.586Z,74.74
2022-09-25T19:41:50.266Z,74.54
2022-09-25T19:44:23.000Z,73.07
2022-09-25T19:46:52.544Z,72.94
2022-09-25T19:49:22.601Z,72.18
2022-09-25T19:51:51.990Z,72.30
2022-09-25T19:54:21.485Z,71.91
2022-09-25T19:56:50.867Z,71.94
2022-09-25T19:59:23.144Z,72.56
2022-09-25T20:01:53.506Z,72.94
2022-09-25T20:04:23.016Z,73.11
2022-09-25T20:06:52.394Z,73.27
2022-09-25T20:09:21.781Z,73.24
2022-09-25T20:11:51.158Z,73.04
2022-09-25T20:14:25.620Z,72.93
2022-09-25T20:16:55.840Z,73.37
2022-09-25T20:19:26.000Z,73.28
2022-09-25T20:21:55.999Z,74.51
2022-09-25T20:24:25.557Z,74.28
2022-09-25T20:26:55.558Z,74.01
2022-09-25T20:29:27.596Z,73.91
2022-09-25T20:31:57.041Z,74.34
2022-09-25T20:34:26.656Z,74.60
2022-09-25T20:36:56.062Z,74.94
2022-09-25T20:39:27.442Z,74.62
2022-09-25T20:41:56.829Z,75.15
2022-09-25T20:44:28.808Z,75.42
2022-09-25T20:46:58.284Z,75.28
2022-09-25T20:49:27.799Z,74.80
2022-09-25T20:51:57.203Z,75.11
2022-09-25T20:54:27.197Z,73.98
2022-09-25T20:56:56.697Z,73.46
2022-09-25T20:59:28.997Z,73.22
2022-09-25T21:01:58.762Z,72.99
2022-09-25T21:04:28.398Z,72.41
2022-09-25T21:06:57.779Z,72.88
2022-09-25T21:09:29.026Z,72.68
2022-09-25T21:11:58.814Z,72.22
2022-09-25T21:14:33.174Z,72.15
2022-09-25T21:17:02.592Z,72.00
2022-09-25T21:19:32.081Z,71.73
2022-09-25T21:22:01.464Z,71.70
2022-09-25T21:24:30.916Z,71.36
2022-09-25T21:27:00.346Z,71.08
2022-09-25T21:29:33.789Z,70.98
2022-09-25T21:32:03.898Z,71.18
2022-09-25T21:34:33.475Z,71.53
2022-09-25T21:37:02.858Z,71.17
2022-09-25T21:39:32.284Z,70.90
2022-09-25T21:42:03.064Z,70.30
2022-09-25T21:44:35.433Z,70.65
2022-09-25T21:47:04.831Z,71.08
2022-09-25T21:49:34.320Z,71.14
2022-09-25T21:52:04.441Z,70.70
2022-09-25T21:54:33.969Z,70.98
2022-09-25T21:57:03.362Z,70.72
2022-09-25T21:59:35.521Z,70.74
2022-09-25T22:02:04.929Z,70.82
2022-09-25T22:04:34.331Z,71.54
2022-09-25T22:07:03.722Z,71.63
2022-09-25T22:09:33.104Z,72.16
2022-09-25T22:12:02.493Z,71.68
2022-09-25T22:14:31.918Z,71.31
2022-09-25T22:17:04.027Z,71.21
2022-09-25T22:19:33.483Z,71.06
2022-09-25T22:22:02.984Z,71.16
2022-09-25T22:24:32.389Z,71.36
2022-09-25T22:27:01.814Z,71.49
2022-09-25T22:29:31.819Z,71.57
2022-09-25T22:32:04.093Z,71.03
2022-09-25T22:34:33.648Z,71.17
2022-09-25T22:37:03.038Z,71.48
2022-09-25T22:39:32.490Z,71.71
2022-09-25T22:42:02.055Z,71.92
2022-09-25T22:44:31.470Z,71.81
2022-09-25T22:47:03.921Z,72.01
2022-09-25T22:49:36.144Z,71.96
2022-09-25T22:52:05.562Z,72.27
2022-09-25T22:54:35.006Z,72.23
2022-09-25T22:57:04.397Z,72.50
2022-09-25T22:59:33.842Z,72.62
2022-09-25T23:02:03.229Z,72.85
2022-09-25T23:04:32.649Z,73.00
2022-09-25T23:07:04.610Z,72.83
2022-09-25T23:09:33.993Z,73.06
2022-09-25T23:12:03.962Z,73.38
2022-09-25T23:14:33.762Z,73.36
2022-09-25T23:17:03.272Z,73.55
2022-09-25T23:19:32.676Z,73.79
2022-09-25T23:22:05.322Z,73.73
2022-09-25T23:24:34.881Z,73.31
2022-09-25T23:27:04.293Z,73.25
2022-09-25T23:29:33.739Z,73.23
2022-09-25T23:32:08.014Z,73.39
2022-09-25T23:34:37.483Z,72.98
2022-09-25T23:37:09.480Z,72.92
2022-09-25T23:39:39.066Z,73.03
2022-09-25T23:42:08.627Z,73.14
2022-09-25T23:44:38.072Z,72.77
2022-09-25T23:47:07.566Z,73.10
2022-09-25T23:49:36.946Z,72.68
2022-09-25T23:52:08.961Z,73.24
2022-09-25T23:54:38.363Z,73.01
2022-09-25T23:57:07.778Z,73.27
2022-09-25T23:59:37.189Z,73.30
